KFST/FST METAR and TAF weather

Enter ICAO airport designator
Station Type Date Time Source
KFST METAR 2019/04/19 10:53 UTC NOAA

KFST 191053Z AUTO 09009KT 10SM CLR 12/01 A3017 RMK AO2 SLP184 T01170011


Station Type Date Time Source
KFST Decoded METAR 2019/04/19 10:53 UTC NOAA

FORT STOCKTON PECOS CO AIRPORT , TX, United States (KFST) 30-55N 102-55W 918M
Apr 19, 2019 - 06:53 AM EDT / 2019.04.19 1053 UTC
Wind: from the E (090 degrees) at 10 MPH (9 KT):0
Visibility: 10 mile(s):0
Sky conditions: clear
Temperature: 53.1 F (11.7 C)
Dew Point: 34.0 F (1.1 C)
Relative Humidity: 48%
Pressure (altimeter): 30.17 in. Hg (1021 hPa)
ob: KFST 191053Z AUTO 09009KT 10SM CLR 12/01 A3017 RMK AO2 SLP184 T01170011
cycle: 11

Station Type Date Time Source
KFST TAF 2019/04/19 06:22 UTC NOAA

TAF KFST 190520Z 1906/2006 18006KT P6SM SKC
FM191300 09007KT P6SM SKC

Example: see airport list